Albuquerque, NM

9:05 AM MDT on July 30, 2016 (GMT -0600)
Montecito Estates | | Change Station

Elev 5384 ft 35.16 °N, 106.73 °W | Updated 1 minute ago

Scattered Clouds
Scattered Clouds
76.5 °F
Feels Like 78 °F
N
0.4
Wind Variable Wind from North
Gusts 2.5 mph

Today
High -- | Low -- °F
--% Chance of Precip.
Yesterday
High -- | Low -- °F
Precip. -- in
Pressure 29.97 in
Visibility 10.0 miles
Clouds Few 18000 ft
Scattered Clouds 30000 ft
Heat Index 78 °F
Dew Point 55 °F
Humidity 47%
Rainfall 0.00 in
Snow Depth Not available.
6:15 AM 8:11 PM
Waning Crescent, 13% visible
METAR KABQ 301452Z 02005KT 10SM FEW180 SCT300 22/13 A3020 RMK AO2 SLP149 T02220128 53010
Pressure 29.97 in
Visibility 10.0 miles
Clouds Few 18000 ft
Scattered Clouds 30000 ft
Heat Index 78 °F
Dew Point 55 °F
Humidity 47%
Rainfall 0.00 in
Snow Depth Not available.
6:15 AM 8:11 PM
Waning Crescent, 13% visible
METAR KABQ 301452Z 02005KT 10SM FEW180 SCT300 22/13 A3020 RMK AO2 SLP149 T02220128 53010

10-Day Weather Forecast

Almanac

Astronomy

Jul. 30, 2016 Rise Set
Actual Time
Civil Twilight
Nautical Twilight
Astronomical Twilight
Moon
Length of Visible Light
Length of Day
Tomorrow will be .
, % of the Moon is Illuminated

Today's Extremes

State Highs State Lows

Community

WunderPhotos

Upload Photos

1,928,568 photos uploaded!

WunderBlog® & News

Nearby

Air Quality

  Air Quality AQ Index Pollutant
Not available.

Snow Depth

Station Depth Elevation

Earthquake Activity

City Distance Mag. Time & Date
Minimum magnitude displayed is 2.5.

Coastal Water Temperatures

Place Temperature

Stations

Nearby Weather Stations

Station Location Temp. Windchill Dew Point Humidity Wind Precip. Elev Updated Type
                   

Watches & Warnings

There are currently no watches in effect.